ベレン の空港の天気 - METARとTAF

ベレン国際空港 ( SBBE / BEL ) - ブラジル パラー州ベレン
飛行場実況気象(Metar)
観測時間10/23 23:00 AMT (10/24 03:00 UTC)
風向・風速東北東 3m/s
視程10km以上
天気現象
なし
気温26℃
湿度89%
気圧1011hPa
METARSBBE 240300Z 07006KT CAVOK 26/24 Q1011
過去の天気等 Google飛行場航空写真 Wunderground天気予報

過去48時間のMETAR

飛行場予報(TAF)
発表時間: 10/23 17:22 AMT (10/23 21:22 UTC)
予報対象時間: 23日20時 AMT ~ 24日20時 AMT
風向・風速北東 4m/s
視程8000m
少しの雲 雲底高度 910m
23日20時 AMT ~ 23日22時 AMT に徐々に
風向・風速東 3m/s
24日7時 AMT ~ 24日10時 AMT に徐々に
全天の8割程度の雲 雲底高度 910m
24日11時 AMT ~ 24日13時 AMT に徐々に
風向・風速北北西 4m/s
視程7000m
全天の8割程度の雲 雲底高度 910m
少しの塔状積雲 雲底高度 1070m
24日14時 AMT ~ 24日16時 AMT に徐々に
風向・風速北北東 4m/s
天気現象雷雨
全天の8割程度の雲 雲底高度 910m
少しの積乱雲 雲底高度 1070m
24日16時 AMT ~ 24日19時 AMT に徐々に
天気現象運行に影響にある天気現象が終了
少しの雲 雲底高度 910m
TAF SBBE 232122Z 2400/2424 05007KT 8000 FEW030 TN25/2409Z TX31/2415Z
BECMG 2400/2402 09005KT
BECMG 2411/2414 BKN030
BECMG 2415/2417 34007KT 7000 BKN030 FEW035TCU
BECMG 2418/2420 03007KT TSRA BKN030 FEW035CB
BECMG 2420/2423 NSW FEW030 RMK PHC